Flight Track Log - Related Links

Times and Time Zones

All times are in EDT time to prevent confusion due to time zone crossing. See the SKW6492 flight status page for this flight to view local times or setup timezone preferences in your user account.

Time Position Orientation Groundspeed Altitude Reporting Facility
EDT Latitude Longitude Course Direction KTS MPH feet Rate Location/Type
Fri 11:26:10 AM 29.9528 -95.3375 127° Southeast 209 241 800  Level Houston Center
Fri 11:27:01 AM 29.9275 -95.2989 127° Southeast 202 232 2,100 1,579 Climbing Houston Center
Fri 11:28:04 AM 29.8881 -95.2397 128° Southeast 219 252 3,800 1,920 Climbing Houston Center
Fri 11:29:06 AM 29.8842 -95.1517 93° East 267 307 6,100 2,226 Climbing Houston Center
Fri 11:30:08 AM 29.8817 -95.0619 92° East 277 319 8,400 2,274 Climbing Houston Center
Fri 11:31:10 AM 29.8789 -94.9497 92° East 287 330 10,800 2,081 Climbing Houston Center
Fri 11:32:12 AM 29.8756 -94.8528 92° East 298 343 12,700 1,597 Climbing Houston Center
Fri 11:33:14 AM 29.8747 -94.7478 90° East 318 366 14,100 1,355 Climbing Houston Center
Fri 11:34:16 AM 29.8714 -94.6358 92° East 341 392 15,500 1,452 Climbing Houston Center
Fri 11:35:18 AM 29.8681 -94.5206 92° East 355 409 17,100 1,355 Climbing Houston Center
Fri 11:36:20 AM 29.8900 -94.4061 78° East 366 421 18,300 1,161 Climbing Houston Center
Fri 11:37:22 AM 29.9172 -94.2661 77° East 378 435 19,500 1,248 Climbing Houston Center
Fri 11:38:25 AM 29.9406 -94.1436 78° East 388 447 20,900 1,344 Climbing Houston Center
Fri 11:39:27 AM 29.9650 -94.0181 77° East 398 458 22,300 1,355 Climbing Houston Center
Fri 11:40:29 AM 29.9892 -93.8936 77° East 400 460 23,700 1,355 Climbing Houston Center
Fri 11:41:31 AM 30.0144 -93.7686 77° East 402 463 25,100 1,500 Climbing Houston Center
Fri 11:42:33 AM 30.0422 -93.6206 78° East 399 459 26,800 1,452 Climbing Houston Center
Fri 11:43:35 AM 30.0658 -93.4967 78° East 400 460 28,100 1,161 Climbing Houston Center
Fri 11:44:37 AM 30.0889 -93.3744 78° East 396 456 29,200 919 Climbing Houston Center
Fri 11:45:39 AM 30.1119 -93.2500 78° East 400 460 30,000 720 Climbing Houston Center
Fri 11:46:42 AM 30.1414 -93.0967 77° East 412 474 30,700 624 Climbing Houston Center
Fri 11:47:44 AM 30.1725 -92.9650 75° East 425 489 31,300 581 Climbing Houston Center
Fri 11:48:46 AM 30.2039 -92.8344 74° East 424 488 31,900 581 Climbing Houston Center
Fri 11:49:48 AM 30.2350 -92.7000 75° East 432 497 32,500 629 Climbing Houston Center
Fri 11:50:50 AM 30.2661 -92.5653 75° East 436 502 33,200 726 Climbing Houston Center
Fri 11:51:52 AM 30.3031 -92.4036 75° East 435 501 34,000 774 Climbing Houston Center
Fri 11:52:54 AM 30.3322 -92.2728 75° East 432 497 34,800 726 Climbing Houston Center
Fri 11:53:56 AM 30.3633 -92.1389 75° East 431 496 35,500 677 Climbing Houston Center
Fri 11:54:58 AM 30.3933 -92.0067 75° East 429 494 36,200 720 Climbing Houston Center
Fri 11:56:01 AM 30.4286 -91.8483 75° East 425 489 37,000 384 Climbing Houston Center
Fri 11:57:03 AM 30.4592 -91.7192 75° East 428 493 37,000  Level Houston Center
Fri 11:58:05 AM 30.4900 -91.5786 76° East 439 505 37,000  Level Houston Center
Fri 11:59:07 AM 30.5200 -91.4411 76° East 443 510 37,000  Level Houston Center
Fri 12:00:09 PM 30.5511 -91.3053 75° East 444 511 37,000  Level Houston Center
Fri 12:01:11 PM 30.5806 -91.1672 76° East 438 504 37,000  Level Houston Center
Fri 12:02:13 PM 30.6161 -91.0075 75° East 432 497 37,000  Level Houston Center
Fri 12:03:15 PM 30.6450 -90.8731 76° East 430 495 37,000  Level Houston Center
Fri 12:04:17 PM 30.6733 -90.7386 76° East 428 493 37,000  Level Houston Center
Fri 12:05:19 PM 30.7028 -90.6064 75° East 424 488 37,000  Level Houston Center
Fri 12:06:22 PM 30.7300 -90.4719 77° East 426 490 37,000  Level Houston Center
Fri 12:07:24 PM 30.7592 -90.3350 76° East 432 497 37,000  Level Houston Center
Fri 12:08:26 PM 30.7958 -90.1678 76° East 444 511 37,000  Level Houston Center
Fri 12:09:28 PM 30.8247 -90.0267 77° East 447 514 37,000  Level Houston Center
Fri 12:10:30 PM 30.8539 -89.8847 77° East 448 516 37,000  Level Houston Center
Fri 12:11:32 PM 30.8836 -89.7433 76° East 448 516 37,000  Level Houston Center
Fri 12:12:34 PM 30.9256 -89.6083 70° East 446 513 37,000  Level Houston Center
Fri 12:13:36 PM 30.9786 -89.4803 64° Northeast 442 509 37,000  Level Houston Center
Fri 12:14:38 PM 31.0319 -89.3511 64° Northeast 442 509 37,000  Level Houston Center
Fri 12:15:41 PM 31.0942 -89.1933 65° Northeast 447 514 37,000  Level Houston Center
Fri 12:16:43 PM 31.1472 -89.0642 64° Northeast 444 511 37,000  Level Houston Center
Fri 12:17:45 PM 31.1997 -88.9339 65° Northeast 445 512 37,000  Level Houston Center
Fri 12:18:47 PM 31.2544 -88.8025 64° Northeast 440 506 37,000  Level Houston Center
Fri 12:19:49 PM 31.3075 -88.6714 65° Northeast 446 513 37,000  Level Houston Center
Fri 12:20:51 PM 31.3594 -88.5400 65° Northeast 442 509 37,000  Level Houston Center
Fri 12:21:53 PM 31.4131 -88.4092 64° Northeast 443 510 37,000  Level Houston Center
Fri 12:22:55 PM 31.4764 -88.2519 65° Northeast 443 510 37,000  Level Houston Center
Fri 12:23:57 PM 31.5275 -88.1197 66° East 442 509 37,000  Level Houston Center
Fri 12:25:00 PM 31.5806 -87.9875 65° Northeast 445 512 37,000  Level Houston Center
Fri 12:26:02 PM 31.6314 -87.8561 66° East 442 509 37,000  Level Houston Center
Fri 12:27:04 PM 31.6828 -87.7253 65° Northeast 444 511 37,000  Level Houston Center
Fri 12:28:21 PM 31.7572 -87.5486 64° Northeast 434 499 37,000  Level Atlanta Center
Fri 12:29:21 PM 31.8069 -87.4186 66° East 434 499 37,000  Level Atlanta Center
Fri 12:30:21 PM 31.8497 -87.2978 67° East 434 499 37,000  Level Atlanta Center
Fri 12:31:21 PM 31.9036 -87.1531 66° East 434 499 37,000  Level Atlanta Center
Fri 12:32:21 PM 31.9547 -87.0228 65° Northeast 434 499 37,000  Level Atlanta Center
Fri 12:33:21 PM 32.0081 -86.8922 64° Northeast 434 499 37,000  Level Atlanta Center
Fri 12:34:21 PM 32.0547 -86.7589 68° East 434 499 37,000  Level Atlanta Center
Fri 12:35:21 PM 32.1119 -86.6258 63° Northeast 439 505 37,000  Level Atlanta Center
Fri 12:36:21 PM 32.1606 -86.4922 67° East 439 505 37,000  Level Atlanta Center
Fri 12:37:21 PM 32.2069 -86.3658 67° East 439 505 37,000  Level Atlanta Center
Fri 12:38:21 PM 32.2739 -86.2400 58° Northeast 434 499 37,000  Level Atlanta Center
Fri 12:39:21 PM 32.3508 -86.1286 51° Northeast 437 503 37,000  Level Atlanta Center
Fri 12:40:21 PM 32.4300 -86.0125 51° Northeast 437 503 37,000  Level Atlanta Center
Fri 12:41:21 PM 32.5006 -85.9033 53° Northeast 432 497 37,000  Level Atlanta Center
Fri 12:42:21 PM 32.5839 -85.7842 50° Northeast 444 511 37,000  Level Atlanta Center
Fri 12:43:21 PM 32.6606 -85.6697 51° Northeast 444 511 37,000  Level Atlanta Center
Fri 12:44:21 PM 32.7350 -85.5550 52° Northeast 444 511 37,000  Level Atlanta Center
Fri 12:45:21 PM 32.8114 -85.4403 52° Northeast 444 511 37,000  Level Atlanta Center
Fri 12:46:21 PM 32.8878 -85.3278 51° Northeast 444 511 37,000  Level Atlanta Center
Fri 12:47:21 PM 32.9642 -85.2125 52° Northeast 444 511 37,000  Level Atlanta Center
Fri 12:48:21 PM 33.0319 -85.1142 51° Northeast 437 503 37,000  Level Atlanta Center
Fri 12:49:21 PM 33.1081 -84.9986 52° Northeast 437 503 37,000  Level Atlanta Center
Fri 12:50:21 PM 33.1819 -84.8828 53° Northeast 443 510 37,000  Level Atlanta Center
Fri 12:51:21 PM 33.2578 -84.7667 52° Northeast 443 510 37,000  Level Atlanta Center
Fri 12:52:21 PM 33.3314 -84.6481 53° Northeast 443 510 37,000  Level Atlanta Center
Fri 12:53:21 PM 33.4133 -84.5217 52° Northeast 443 510 37,000  Level Atlanta Center
Fri 12:54:21 PM 33.4889 -84.4025 53° Northeast 443 510 37,000  Level Atlanta Center
Fri 12:55:21 PM 33.5664 -84.2831 52° Northeast 443 510 37,000  Level Atlanta Center
Fri 12:56:21 PM 33.6419 -84.1636 53° Northeast 443 510 37,000  Level Atlanta Center
Fri 12:57:21 PM 33.7169 -84.0464 52° Northeast 450 518 37,000  Level Atlanta Center
Fri 12:58:21 PM 33.7942 -83.9264 52° Northeast 450 518 37,000  Level Atlanta Center
Fri 12:59:21 PM 33.8692 -83.8061 53° Northeast 450 518 37,000  Level Atlanta Center
Fri 01:00:21 PM 33.9461 -83.6883 52° Northeast 445 512 37,000  Level Atlanta Center
Fri 01:01:21 PM 34.0208 -83.5725 52° Northeast 440 506 37,000  Level Atlanta Center
Fri 01:02:21 PM 34.0975 -83.4492 53° Northeast 445 512 37,000  Level Atlanta Center
Fri 01:03:21 PM 34.1742 -83.3256 53° Northeast 451 519 37,000  Level Atlanta Center
Fri 01:04:21 PM 34.2525 -83.1969 54° Northeast 467 537 37,000  Level Atlanta Center
Fri 01:05:21 PM 34.3331 -83.0703 52° Northeast 467 537 37,000  Level Atlanta Center
Fri 01:06:21 PM 34.4092 -82.9436 54° Northeast 467 537 37,000  Level Atlanta Center
Fri 01:07:21 PM 34.4875 -82.8192 53° Northeast 462 532 37,000  Level Atlanta Center
Fri 01:08:21 PM 34.5572 -82.7069 53° Northeast 456 525 37,000  Level Atlanta Center
Fri 01:09:21 PM 34.6411 -82.5744 52° Northeast 461 531 37,000  Level Atlanta Center
Fri 01:10:21 PM 34.7189 -82.4492 53° Northeast 461 531 37,000  Level Atlanta Center
Fri 01:11:21 PM 34.7944 -82.3264 53° Northeast 461 531 37,000  Level Atlanta Center
Fri 01:12:21 PM 34.8719 -82.2008 53° Northeast 461 531 37,000  Level Atlanta Center
Fri 01:13:21 PM 34.9472 -82.0775 53° Northeast 456 525 37,000  Level Atlanta Center
Fri 01:14:21 PM 35.0244 -81.9436 55° Northeast 470 541 37,000  Level Atlanta Center
Fri 01:15:21 PM 35.0950 -81.8125 57° Northeast 470 541 37,000  Level Atlanta Center
Fri 01:16:21 PM 35.1617 -81.6886 57° Northeast 475 547 37,000 -200 Level Atlanta Center
Fri 01:17:21 PM 35.2319 -81.5519 58° Northeast 475 547 36,600 -700 Descending Atlanta Center
Fri 01:18:21 PM 35.3064 -81.4150 56° Northeast 480 552 35,600 -800 Descending Atlanta Center
Fri 01:19:21 PM 35.3744 -81.2803 58° Northeast 480 552 35,000 -300 Descending Atlanta Center
Fri 01:20:21 PM 35.4442 -81.1428 58° Northeast 472 543 35,000  Level Atlanta Center
Fri 01:21:21 PM 35.5158 -81.0025 58° Northeast 478 550 35,000 -150 Level Atlanta Center
Fri 01:22:21 PM 35.5897 -80.8669 56° Northeast 483 556 34,700 -750 Descending Atlanta Center
Fri 01:23:21 PM 35.6611 -80.7286 58° Northeast 483 556 33,500 -850 Descending Atlanta Center
Fri 01:24:21 PM 35.7325 -80.5928 57° Northeast 478 550 33,000 -157 Descending Atlanta Center
Fri 01:26:32 PM 35.8864 -80.2889 58° Northeast 493 567 33,000  Level Washington Center
Fri 01:27:31 PM 35.9589 -80.1469 58° Northeast 487 560 33,000  Level Washington Center
Fri 01:28:31 PM 36.0397 -79.9922 57° Northeast 474 545 33,000  Level Washington Center
Fri 01:29:32 PM 36.1178 -79.8528 55° Northeast 479 551 33,000  Level Washington Center
Fri 01:30:33 PM 36.1978 -79.7103 55° Northeast 496 571 33,000  Level Washington Center
Fri 01:31:31 PM 36.2711 -79.5853 54° Northeast 502 578 33,000 -555 Level Washington Center
Fri 01:32:32 PM 36.3575 -79.4297 55° Northeast 502 578 31,900 -1,230 Descending Washington Center
Fri 01:33:33 PM 36.4283 -79.3017 55° Northeast 502 578 30,500 -1,537 Descending Washington Center
Fri 01:34:33 PM 36.5078 -79.1556 56° Northeast 502 578 28,800 -1,850 Descending Washington Center
Fri 01:35:33 PM 36.5936 -79.0067 54° Northeast 497 572 26,800 -1,831 Descending Washington Center
Fri 01:36:31 PM 36.6706 -78.8625 56° Northeast 497 572 25,200 -915 Descending Washington Center
Fri 01:37:31 PM 36.7450 -78.7283 55° Northeast 491 565 25,000 -99 Descending Washington Center
Fri 01:38:32 PM 36.8175 -78.5936 56° Northeast 473 544 25,000 -541 Level Washington Center
Fri 01:39:33 PM 36.9075 -78.4986 40° Northeast 467 537 23,900 -1,059 Descending Washington Center
Fri 01:40:31 PM 37.0122 -78.3881 40° Northeast 467 537 22,900 -958 Descending Washington Center
Fri 01:41:32 PM 37.1150 -78.2772 41° Northeast 474 545 22,000 -443 Descending Washington Center
Fri 01:42:33 PM 37.2261 -78.1583 40° Northeast 479 551 22,000  Level Washington Center
Fri 01:43:34 PM 37.3136 -78.0647 40° Northeast 466 536 22,000  Level Washington Center
Fri 01:44:32 PM 37.4136 -77.9556 41° Northeast 466 536 22,000 -504 Level Washington Center
Fri 01:45:33 PM 37.5161 -77.8436 41° Northeast 471 542 21,000 -1,537 Descending Washington Center
Fri 01:46:33 PM 37.6300 -77.7683 28° Northeast 471 542 18,900 -2,237 Descending Washington Center
Fri 01:47:31 PM 37.7375 -77.7058 25° Northeast 445 512 16,600 -2,168 Descending Washington Center
Fri 01:48:32 PM 37.8469 -77.6431 24° Northeast 424 488 14,600 -1,869 Descending Washington Center
Fri 01:49:33 PM 37.9525 -77.5800 25° Northeast 418 481 12,800 -1,736 Descending Washington Center
Fri 01:50:33 PM 38.0533 -77.5247 23° Northeast 408 470 11,100 -1,424 Descending Washington Center
Fri 01:51:31 PM 38.1522 -77.4664 25° Northeast 398 458 10,000 -559 Descending Washington Center
Fri 01:52:31 PM 38.2367 -77.4158 25° Northeast 367 422 10,000 -744 Level Washington Center
Fri 01:53:32 PM 38.3164 -77.3675 25° Northeast 330 380 8,500 -1,328 Descending Washington Center
Fri 01:54:33 PM 38.3958 -77.3586 North 308 354 7,300 -1,220 Descending Washington Center
Fri 01:55:30 PM 38.4750 -77.3633 357° North 286 329 6,100 -1,169 Descending Washington Center
Fri 01:56:31 PM 38.5500 -77.3650 359° North 280 322 5,000 -787 Descending Washington Center
Fri 01:57:32 PM 38.6272 -77.3642 360° North 275 316 4,500 -496 Descending Washington Center
Fri 01:58:32 PM 38.7044 -77.3633 360° North 275 316 4,000 -248 Descending Washington Center
Fri 01:59:33 PM 38.7817 -77.3600 North 270 311 4,000  Level Washington Center
Fri 02:00:33 PM 38.8586 -77.3564 North 270 311 4,000 -175 Level Washington Center
Fri 02:01:50 PM 38.9667 -77.3500 North 270 311 3,600 -462 Descending Potomac TRACON
Fri 02:02:56 PM 39.0500 -77.3500 360° North 247 284 2,900 -762 Descending Potomac TRACON
Fri 02:03:56 PM 39.0833 -77.4000 311° West 217 250 2,000 -650 Descending Potomac TRACON
Fri 02:04:56 PM 39.0333 -77.4333 207° Southwest 202 232 1,600 -450 Descending Potomac TRACON
Fri 02:05:56 PM 39.0000 -77.4333 180° South 140 161 1,100 -500 Descending Potomac TRACON
Fri 02:07:00 PM 38.9474 -77.4599 195° South  Level Estimated
Fri 02:14:00 PM 38.9474 -77.4599 195° South  Level Estimated
Fri 02:15:00 PM 38.9474 -77.4599 195° South  Level Estimated
Fri 02:16:00 PM 38.9474 -77.4599 195° South  Level Estimated
Fri 02:17:00 PM 38.9474 -77.4599 195° South  Level Estimated
Fri 02:18:00 PM 38.9474 -77.4599 195° South  Level Estimated

Login

Don't have an account? Register now (free) for customized features, flight alerts, and more!